sensor_id;sensor_type;location;lat;lon;timestamp;P1;durP1;ratioP1;P2;durP2;ratioP2
39016;SDS011;24784;45.582;5.276;2022-08-21T00:02:02;4.68;;;1.98;;
39016;SDS011;24784;45.582;5.276;2022-08-21T00:04:28;5.75;;;1.15;;
39016;SDS011;24784;45.582;5.276;2022-08-21T00:06:55;3.83;;;1.05;;
39016;SDS011;24784;45.582;5.276;2022-08-21T00:09:21;4.95;;;1.10;;
39016;SDS011;24784;45.582;5.276;2022-08-21T00:11:47;9.20;;;1.50;;
39016;SDS011;24784;45.582;5.276;2022-08-21T00:14:13;4.55;;;0.85;;
39016;SDS011;24784;45.582;5.276;2022-08-21T00:16:39;6.30;;;1.20;;
39016;SDS011;24784;45.582;5.276;2022-08-21T00:19:06;5.43;;;1.15;;
39016;SDS011;24784;45.582;5.276;2022-08-21T00:21:33;5.03;;;1.08;;
39016;SDS011;24784;45.582;5.276;2022-08-21T00:24:00;5.93;;;1.20;;
39016;SDS011;24784;45.582;5.276;2022-08-21T00:26:26;3.28;;;1.70;;
39016;SDS011;24784;45.582;5.276;2022-08-21T00:28:52;2.55;;;1.08;;
39016;SDS011;24784;45.582;5.276;2022-08-21T00:31:17;2.65;;;1.17;;
39016;SDS011;24784;45.582;5.276;2022-08-21T00:33:44;5.65;;;1.00;;
39016;SDS011;24784;45.582;5.276;2022-08-21T00:36:10;5.80;;;1.52;;
39016;SDS011;24784;45.582;5.276;2022-08-21T00:38:36;2.92;;;1.42;;
39016;SDS011;24784;45.582;5.276;2022-08-21T00:41:03;6.63;;;1.00;;
39016;SDS011;24784;45.582;5.276;2022-08-21T00:43:33;6.93;;;1.35;;
39016;SDS011;24784;45.582;5.276;2022-08-21T00:46:03;3.05;;;1.10;;
39016;SDS011;24784;45.582;5.276;2022-08-21T00:48:31;2.60;;;1.13;;
39016;SDS011;24784;45.582;5.276;2022-08-21T00:51:08;3.85;;;1.25;;
39016;SDS011;24784;45.582;5.276;2022-08-21T00:53:37;3.20;;;1.08;;
39016;SDS011;24784;45.582;5.276;2022-08-21T00:56:06;2.10;;;1.10;;
39016;SDS011;24784;45.582;5.276;2022-08-21T00:58:34;1.73;;;1.00;;
39016;SDS011;24784;45.582;5.276;2022-08-21T01:01:03;8.68;;;1.00;;
39016;SDS011;24784;45.582;5.276;2022-08-21T01:03:30;2.15;;;0.90;;
39016;SDS011;24784;45.582;5.276;2022-08-21T01:05:56;3.35;;;1.30;;
39016;SDS011;24784;45.582;5.276;2022-08-21T01:08:22;2.00;;;1.15;;
39016;SDS011;24784;45.582;5.276;2022-08-21T01:10:48;2.55;;;1.10;;
39016;SDS011;24784;45.582;5.276;2022-08-21T01:13:15;1.65;;;1.02;;
39016;SDS011;24784;45.582;5.276;2022-08-21T01:15:43;3.83;;;1.25;;
39016;SDS011;24784;45.582;5.276;2022-08-21T01:18:13;3.25;;;1.10;;
39016;SDS011;24784;45.582;5.276;2022-08-21T01:20:43;7.90;;;1.55;;
39016;SDS011;24784;45.582;5.276;2022-08-21T01:23:11;1.90;;;0.98;;
39016;SDS011;24784;45.582;5.276;2022-08-21T01:25:37;4.85;;;1.38;;
39016;SDS011;24784;45.582;5.276;2022-08-21T01:28:09;4.60;;;1.30;;
39016;SDS011;24784;45.582;5.276;2022-08-21T01:30:38;5.05;;;1.52;;
39016;SDS011;24784;45.582;5.276;2022-08-21T01:33:05;0.95;;;0.80;;
39016;SDS011;24784;45.582;5.276;2022-08-21T01:35:30;4.18;;;1.00;;
39016;SDS011;24784;45.582;5.276;2022-08-21T01:37:56;7.82;;;1.23;;
39016;SDS011;24784;45.582;5.276;2022-08-21T01:40:22;5.60;;;1.70;;
39016;SDS011;24784;45.582;5.276;2022-08-21T01:42:47;7.13;;;1.25;;
39016;SDS011;24784;45.582;5.276;2022-08-21T01:45:14;3.03;;;1.13;;
39016;SDS011;24784;45.582;5.276;2022-08-21T01:47:41;4.78;;;1.30;;
39016;SDS011;24784;45.582;5.276;2022-08-21T01:50:08;9.77;;;1.20;;
39016;SDS011;24784;45.582;5.276;2022-08-21T01:52:36;5.68;;;1.33;;
39016;SDS011;24784;45.582;5.276;2022-08-21T01:55:03;6.85;;;1.50;;
39016;SDS011;24784;45.582;5.276;2022-08-21T01:57:31;4.50;;;0.95;;
39016;SDS011;24784;45.582;5.276;2022-08-21T01:59:57;1.65;;;1.30;;
39016;SDS011;24784;45.582;5.276;2022-08-21T02:02:23;1.90;;;0.85;;
39016;SDS011;24784;45.582;5.276;2022-08-21T02:04:49;6.03;;;1.30;;
39016;SDS011;24784;45.582;5.276;2022-08-21T02:07:15;5.28;;;1.13;;
39016;SDS011;24784;45.582;5.276;2022-08-21T02:09:41;7.13;;;1.20;;
39016;SDS011;24784;45.582;5.276;2022-08-21T02:12:10;5.47;;;1.67;;
39016;SDS011;24784;45.582;5.276;2022-08-21T02:14:36;6.25;;;1.33;;
39016;SDS011;24784;45.582;5.276;2022-08-21T02:17:02;7.47;;;2.30;;
39016;SDS011;24784;45.582;5.276;2022-08-21T02:19:28;4.90;;;1.20;;
39016;SDS011;24784;45.582;5.276;2022-08-21T02:21:54;5.82;;;1.20;;
39016;SDS011;24784;45.582;5.276;2022-08-21T02:24:20;4.43;;;1.05;;
39016;SDS011;24784;45.582;5.276;2022-08-21T02:26:46;4.88;;;1.65;;
39016;SDS011;24784;45.582;5.276;2022-08-21T02:29:11;3.85;;;1.17;;
39016;SDS011;24784;45.582;5.276;2022-08-21T02:31:37;1.83;;;1.45;;
39016;SDS011;24784;45.582;5.276;2022-08-21T02:34:03;3.15;;;1.10;;
39016;SDS011;24784;45.582;5.276;2022-08-21T02:36:29;8.60;;;1.70;;
39016;SDS011;24784;45.582;5.276;2022-08-21T02:38:55;5.25;;;1.17;;
39016;SDS011;24784;45.582;5.276;2022-08-21T02:41:21;4.43;;;1.58;;
39016;SDS011;24784;45.582;5.276;2022-08-21T02:43:47;8.30;;;1.33;;
39016;SDS011;24784;45.582;5.276;2022-08-21T02:46:14;13.20;;;1.60;;
39016;SDS011;24784;45.582;5.276;2022-08-21T02:48:41;3.97;;;1.48;;
39016;SDS011;24784;45.582;5.276;2022-08-21T02:51:11;2.58;;;1.20;;
39016;SDS011;24784;45.582;5.276;2022-08-21T02:53:39;6.15;;;1.30;;
39016;SDS011;24784;45.582;5.276;2022-08-21T02:56:07;6.60;;;1.63;;
39016;SDS011;24784;45.582;5.276;2022-08-21T02:58:36;2.85;;;1.42;;
39016;SDS011;24784;45.582;5.276;2022-08-21T03:01:05;8.18;;;2.38;;
39016;SDS011;24784;45.582;5.276;2022-08-21T03:03:34;5.85;;;1.27;;
39016;SDS011;24784;45.582;5.276;2022-08-21T03:06:01;4.78;;;1.20;;
39016;SDS011;24784;45.582;5.276;2022-08-21T03:08:27;7.32;;;2.70;;
39016;SDS011;24784;45.582;5.276;2022-08-21T03:10:53;6.97;;;1.88;;
39016;SDS011;24784;45.582;5.276;2022-08-21T03:13:19;5.95;;;1.30;;
39016;SDS011;24784;45.582;5.276;2022-08-21T03:15:46;6.38;;;1.63;;
39016;SDS011;24784;45.582;5.276;2022-08-21T03:18:13;12.65;;;1.40;;
39016;SDS011;24784;45.582;5.276;2022-08-21T03:20:40;4.20;;;1.30;;
39016;SDS011;24784;45.582;5.276;2022-08-21T03:23:07;7.47;;;1.52;;
39016;SDS011;24784;45.582;5.276;2022-08-21T03:25:34;4.55;;;1.40;;
39016;SDS011;24784;45.582;5.276;2022-08-21T03:28:01;10.90;;;2.00;;
39016;SDS011;24784;45.582;5.276;2022-08-21T03:30:28;4.40;;;1.30;;
39016;SDS011;24784;45.582;5.276;2022-08-21T03:32:56;5.50;;;1.50;;
39016;SDS011;24784;45.582;5.276;2022-08-21T03:35:26;6.13;;;1.20;;
39016;SDS011;24784;45.582;5.276;2022-08-21T03:37:53;7.43;;;1.50;;
39016;SDS011;24784;45.582;5.276;2022-08-21T03:40:19;3.58;;;1.20;;
39016;SDS011;24784;45.582;5.276;2022-08-21T03:42:46;2.22;;;1.50;;
39016;SDS011;24784;45.582;5.276;2022-08-21T03:45:13;3.33;;;1.58;;
39016;SDS011;24784;45.582;5.276;2022-08-21T03:47:57;6.82;;;1.60;;
39016;SDS011;24784;45.582;5.276;2022-08-21T03:50:25;2.23;;;1.40;;
39016;SDS011;24784;45.582;5.276;2022-08-21T03:52:53;3.17;;;1.23;;
39016;SDS011;24784;45.582;5.276;2022-08-21T03:55:19;15.30;;;1.58;;
39016;SDS011;24784;45.582;5.276;2022-08-21T03:57:45;2.50;;;1.40;;
39016;SDS011;24784;45.582;5.276;2022-08-21T04:00:12;6.65;;;1.55;;
39016;SDS011;24784;45.582;5.276;2022-08-21T04:02:40;8.05;;;1.80;;
39016;SDS011;24784;45.582;5.276;2022-08-21T04:05:08;4.68;;;1.70;;
39016;SDS011;24784;45.582;5.276;2022-08-21T04:07:34;9.50;;;1.67;;
39016;SDS011;24784;45.582;5.276;2022-08-21T04:10:01;5.07;;;2.15;;
39016;SDS011;24784;45.582;5.276;2022-08-21T04:12:28;4.03;;;2.05;;
39016;SDS011;24784;45.582;5.276;2022-08-21T04:14:53;3.80;;;1.52;;
39016;SDS011;24784;45.582;5.276;2022-08-21T04:17:19;5.90;;;1.30;;
39016;SDS011;24784;45.582;5.276;2022-08-21T04:19:45;5.60;;;1.55;;
39016;SDS011;24784;45.582;5.276;2022-08-21T04:24:38;3.67;;;1.40;;
39016;SDS011;24784;45.582;5.276;2022-08-21T04:27:03;5.35;;;1.63;;
39016;SDS011;24784;45.582;5.276;2022-08-21T04:29:29;6.07;;;1.35;;
39016;SDS011;24784;45.582;5.276;2022-08-21T04:31:55;11.40;;;1.70;;
39016;SDS011;24784;45.582;5.276;2022-08-21T04:34:20;4.30;;;1.35;;
39016;SDS011;24784;45.582;5.276;2022-08-21T04:36:46;8.60;;;1.58;;
39016;SDS011;24784;45.582;5.276;2022-08-21T04:39:12;6.18;;;1.52;;
39016;SDS011;24784;45.582;5.276;2022-08-21T04:41:37;5.15;;;1.50;;
39016;SDS011;24784;45.582;5.276;2022-08-21T04:44:04;6.53;;;1.52;;
39016;SDS011;24784;45.582;5.276;2022-08-21T04:46:30;12.57;;;1.58;;
39016;SDS011;24784;45.582;5.276;2022-08-21T04:48:55;2.90;;;1.30;;
39016;SDS011;24784;45.582;5.276;2022-08-21T04:51:29;2.80;;;1.23;;
39016;SDS011;24784;45.582;5.276;2022-08-21T04:54:02;3.80;;;1.58;;
39016;SDS011;24784;45.582;5.276;2022-08-21T04:56:36;4.38;;;1.27;;
39016;SDS011;24784;45.582;5.276;2022-08-21T04:59:12;3.92;;;1.40;;
39016;SDS011;24784;45.582;5.276;2022-08-21T05:01:42;4.40;;;1.33;;
39016;SDS011;24784;45.582;5.276;2022-08-21T05:04:10;6.57;;;1.42;;
39016;SDS011;24784;45.582;5.276;2022-08-21T05:06:39;13.18;;;2.70;;
39016;SDS011;24784;45.582;5.276;2022-08-21T05:09:08;4.78;;;1.77;;
39016;SDS011;24784;45.582;5.276;2022-08-21T05:11:35;6.40;;;2.20;;
39016;SDS011;24784;45.582;5.276;2022-08-21T05:14:02;6.72;;;1.58;;
39016;SDS011;24784;45.582;5.276;2022-08-21T05:16:28;7.30;;;1.60;;
39016;SDS011;24784;45.582;5.276;2022-08-21T05:18:54;5.38;;;1.60;;
39016;SDS011;24784;45.582;5.276;2022-08-21T05:21:19;3.67;;;1.38;;
39016;SDS011;24784;45.582;5.276;2022-08-21T05:23:46;7.20;;;1.58;;
39016;SDS011;24784;45.582;5.276;2022-08-21T05:26:11;5.28;;;1.70;;
39016;SDS011;24784;45.582;5.276;2022-08-21T05:28:37;5.10;;;1.58;;
39016;SDS011;24784;45.582;5.276;2022-08-21T05:31:03;9.40;;;1.30;;
39016;SDS011;24784;45.582;5.276;2022-08-21T05:33:29;4.93;;;1.60;;
39016;SDS011;24784;45.582;5.276;2022-08-21T05:35:55;7.85;;;1.60;;
39016;SDS011;24784;45.582;5.276;2022-08-21T05:38:21;7.38;;;1.50;;
39016;SDS011;24784;45.582;5.276;2022-08-21T05:40:52;7.68;;;1.77;;
39016;SDS011;24784;45.582;5.276;2022-08-21T05:43:18;13.20;;;1.42;;
39016;SDS011;24784;45.582;5.276;2022-08-21T05:45:44;6.22;;;1.40;;
39016;SDS011;24784;45.582;5.276;2022-08-21T05:48:12;5.20;;;1.60;;
39016;SDS011;24784;45.582;5.276;2022-08-21T05:50:40;7.65;;;1.83;;
39016;SDS011;24784;45.582;5.276;2022-08-21T05:53:07;12.02;;;2.03;;
39016;SDS011;24784;45.582;5.276;2022-08-21T05:55:35;3.20;;;1.60;;
39016;SDS011;24784;45.582;5.276;2022-08-21T05:58:02;7.47;;;2.05;;
39016;SDS011;24784;45.582;5.276;2022-08-21T06:00:28;3.47;;;1.30;;
39016;SDS011;24784;45.582;5.276;2022-08-21T06:02:54;6.82;;;1.92;;
39016;SDS011;24784;45.582;5.276;2022-08-21T06:05:21;2.60;;;1.58;;
39016;SDS011;24784;45.582;5.276;2022-08-21T06:07:47;4.70;;;1.63;;
39016;SDS011;24784;45.582;5.276;2022-08-21T06:10:13;4.65;;;1.73;;
39016;SDS011;24784;45.582;5.276;2022-08-21T06:12:38;6.75;;;1.73;;
39016;SDS011;24784;45.582;5.276;2022-08-21T06:15:04;6.72;;;1.65;;
39016;SDS011;24784;45.582;5.276;2022-08-21T06:17:30;7.32;;;1.90;;
39016;SDS011;24784;45.582;5.276;2022-08-21T06:19:56;6.30;;;1.85;;
39016;SDS011;24784;45.582;5.276;2022-08-21T06:22:22;3.83;;;1.73;;
39016;SDS011;24784;45.582;5.276;2022-08-21T06:24:47;8.55;;;2.10;;
39016;SDS011;24784;45.582;5.276;2022-08-21T06:27:14;3.40;;;1.40;;
39016;SDS011;24784;45.582;5.276;2022-08-21T06:29:40;8.23;;;1.90;;
39016;SDS011;24784;45.582;5.276;2022-08-21T06:32:06;7.07;;;2.00;;
39016;SDS011;24784;45.582;5.276;2022-08-21T06:34:35;5.85;;;1.73;;
39016;SDS011;24784;45.582;5.276;2022-08-21T06:37:03;3.85;;;1.65;;
39016;SDS011;24784;45.582;5.276;2022-08-21T06:39:29;8.68;;;2.30;;
39016;SDS011;24784;45.582;5.276;2022-08-21T06:41:55;3.70;;;1.60;;
39016;SDS011;24784;45.582;5.276;2022-08-21T06:44:21;5.57;;;1.75;;
39016;SDS011;24784;45.582;5.276;2022-08-21T06:46:46;4.35;;;1.55;;
39016;SDS011;24784;45.582;5.276;2022-08-21T06:49:13;9.25;;;2.33;;
39016;SDS011;24784;45.582;5.276;2022-08-21T06:51:39;7.90;;;1.60;;
39016;SDS011;24784;45.582;5.276;2022-08-21T06:54:05;5.20;;;1.80;;
39016;SDS011;24784;45.582;5.276;2022-08-21T06:56:30;4.97;;;2.03;;
39016;SDS011;24784;45.582;5.276;2022-08-21T06:58:58;5.65;;;1.70;;
39016;SDS011;24784;45.582;5.276;2022-08-21T07:01:24;4.75;;;1.55;;
39016;SDS011;24784;45.582;5.276;2022-08-21T07:03:51;4.40;;;1.70;;
39016;SDS011;24784;45.582;5.276;2022-08-21T07:06:17;6.38;;;1.83;;
39016;SDS011;24784;45.582;5.276;2022-08-21T07:08:43;5.05;;;1.90;;
39016;SDS011;24784;45.582;5.276;2022-08-21T07:11:11;5.63;;;1.95;;
39016;SDS011;24784;45.582;5.276;2022-08-21T07:13:42;9.00;;;2.03;;
39016;SDS011;24784;45.582;5.276;2022-08-21T07:16:08;6.00;;;1.83;;
39016;SDS011;24784;45.582;5.276;2022-08-21T07:18:34;12.27;;;1.80;;
39016;SDS011;24784;45.582;5.276;2022-08-21T07:21:03;5.80;;;1.85;;
39016;SDS011;24784;45.582;5.276;2022-08-21T07:23:31;4.32;;;1.98;;
39016;SDS011;24784;45.582;5.276;2022-08-21T07:25:59;4.57;;;1.85;;
39016;SDS011;24784;45.582;5.276;2022-08-21T07:28:25;7.95;;;2.20;;
39016;SDS011;24784;45.582;5.276;2022-08-21T07:30:52;8.10;;;2.15;;
39016;SDS011;24784;45.582;5.276;2022-08-21T07:33:20;6.60;;;2.17;;
39016;SDS011;24784;45.582;5.276;2022-08-21T07:35:46;5.43;;;2.05;;
39016;SDS011;24784;45.582;5.276;2022-08-21T07:38:12;5.65;;;1.75;;
39016;SDS011;24784;45.582;5.276;2022-08-21T07:40:38;5.78;;;1.90;;
39016;SDS011;24784;45.582;5.276;2022-08-21T07:43:04;7.03;;;2.13;;
39016;SDS011;24784;45.582;5.276;2022-08-21T07:45:30;9.30;;;3.83;;
39016;SDS011;24784;45.582;5.276;2022-08-21T07:47:55;6.72;;;1.85;;
39016;SDS011;24784;45.582;5.276;2022-08-21T07:50:21;5.78;;;1.95;;
39016;SDS011;24784;45.582;5.276;2022-08-21T07:52:47;4.32;;;1.88;;
39016;SDS011;24784;45.582;5.276;2022-08-21T07:55:14;5.10;;;1.63;;
39016;SDS011;24784;45.582;5.276;2022-08-21T07:57:43;4.05;;;2.13;;
39016;SDS011;24784;45.582;5.276;2022-08-21T08:00:11;5.60;;;1.77;;
39016;SDS011;24784;45.582;5.276;2022-08-21T08:02:39;5.70;;;1.75;;
39016;SDS011;24784;45.582;5.276;2022-08-21T08:05:07;6.53;;;1.83;;
39016;SDS011;24784;45.582;5.276;2022-08-21T08:07:36;5.68;;;2.20;;
39016;SDS011;24784;45.582;5.276;2022-08-21T08:10:02;6.25;;;2.30;;
39016;SDS011;24784;45.582;5.276;2022-08-21T08:12:30;5.20;;;1.80;;
39016;SDS011;24784;45.582;5.276;2022-08-21T08:14:56;2.97;;;1.67;;
39016;SDS011;24784;45.582;5.276;2022-08-21T08:17:22;5.93;;;1.77;;
39016;SDS011;24784;45.582;5.276;2022-08-21T08:19:48;3.83;;;1.83;;
39016;SDS011;24784;45.582;5.276;2022-08-21T08:22:18;4.88;;;1.80;;
39016;SDS011;24784;45.582;5.276;2022-08-21T08:24:46;7.38;;;2.08;;
39016;SDS011;24784;45.582;5.276;2022-08-21T08:27:13;4.80;;;1.65;;
39016;SDS011;24784;45.582;5.276;2022-08-21T08:29:39;9.77;;;1.80;;
39016;SDS011;24784;45.582;5.276;2022-08-21T08:32:05;5.72;;;1.90;;
39016;SDS011;24784;45.582;5.276;2022-08-21T08:34:34;4.50;;;1.88;;
39016;SDS011;24784;45.582;5.276;2022-08-21T08:37:01;5.07;;;1.55;;
39016;SDS011;24784;45.582;5.276;2022-08-21T08:39:28;3.20;;;1.40;;
39016;SDS011;24784;45.582;5.276;2022-08-21T08:41:59;3.50;;;1.58;;
39016;SDS011;24784;45.582;5.276;2022-08-21T08:44:30;5.40;;;1.92;;
39016;SDS011;24784;45.582;5.276;2022-08-21T08:46:56;3.60;;;1.63;;
39016;SDS011;24784;45.582;5.276;2022-08-21T08:49:27;2.90;;;1.50;;
39016;SDS011;24784;45.582;5.276;2022-08-21T08:52:18;8.15;;;1.30;;
39016;SDS011;24784;45.582;5.276;2022-08-21T08:55:07;2.08;;;1.45;;
39016;SDS011;24784;45.582;5.276;2022-08-21T08:57:37;3.25;;;1.73;;
39016;SDS011;24784;45.582;5.276;2022-08-21T09:00:09;6.07;;;1.67;;
39016;SDS011;24784;45.582;5.276;2022-08-21T09:02:40;6.25;;;1.58;;
39016;SDS011;24784;45.582;5.276;2022-08-21T09:05:08;2.65;;;1.90;;
39016;SDS011;24784;45.582;5.276;2022-08-21T09:07:47;4.28;;;1.80;;
39016;SDS011;24784;45.582;5.276;2022-08-21T09:21:43;3.75;;;1.77;;
39016;SDS011;24784;45.582;5.276;2022-08-21T09:27:07;6.82;;;1.63;;
39016;SDS011;24784;45.582;5.276;2022-08-21T09:29:39;6.28;;;2.15;;
39016;SDS011;24784;45.582;5.276;2022-08-21T09:32:26;3.85;;;1.13;;
39016;SDS011;24784;45.582;5.276;2022-08-21T09:34:56;2.10;;;1.20;;
39016;SDS011;24784;45.582;5.276;2022-08-21T09:37:29;3.03;;;1.38;;
39016;SDS011;24784;45.582;5.276;2022-08-21T09:39:58;6.38;;;1.10;;
39016;SDS011;24784;45.582;5.276;2022-08-21T09:42:26;4.00;;;1.60;;
39016;SDS011;24784;45.582;5.276;2022-08-21T09:45:13;2.80;;;1.25;;
39016;SDS011;24784;45.582;5.276;2022-08-21T09:47:42;2.40;;;1.50;;
39016;SDS011;24784;45.582;5.276;2022-08-21T09:52:43;3.63;;;1.13;;
39016;SDS011;24784;45.582;5.276;2022-08-21T09:55:16;3.40;;;1.50;;
39016;SDS011;24784;45.582;5.276;2022-08-21T09:58:05;2.45;;;1.48;;
39016;SDS011;24784;45.582;5.276;2022-08-21T10:00:33;2.80;;;1.38;;
39016;SDS011;24784;45.582;5.276;2022-08-21T10:03:16;3.67;;;1.42;;
39016;SDS011;24784;45.582;5.276;2022-08-21T10:08:21;4.72;;;1.58;;
39016;SDS011;24784;45.582;5.276;2022-08-21T10:10:54;5.10;;;1.67;;
39016;SDS011;24784;45.582;5.276;2022-08-21T10:13:36;5.78;;;1.45;;
39016;SDS011;24784;45.582;5.276;2022-08-21T10:19:12;3.78;;;1.58;;
39016;SDS011;24784;45.582;5.276;2022-08-21T10:24:35;4.88;;;1.55;;
39016;SDS011;24784;45.582;5.276;2022-08-21T10:27:16;3.25;;;1.38;;
39016;SDS011;24784;45.582;5.276;2022-08-21T10:29:54;4.30;;;1.50;;
39016;SDS011;24784;45.582;5.276;2022-08-21T10:40:59;5.10;;;1.50;;
39016;SDS011;24784;45.582;5.276;2022-08-21T10:43:55;3.65;;;1.30;;
39016;SDS011;24784;45.582;5.276;2022-08-21T10:49:17;2.63;;;1.30;;
39016;SDS011;24784;45.582;5.276;2022-08-21T10:55:09;6.32;;;1.48;;
39016;SDS011;24784;45.582;5.276;2022-08-21T11:08:51;3.88;;;1.27;;
39016;SDS011;24784;45.582;5.276;2022-08-21T11:16:49;2.58;;;1.00;;
39016;SDS011;24784;45.582;5.276;2022-08-21T11:19:30;5.70;;;1.30;;
39016;SDS011;24784;45.582;5.276;2022-08-21T11:22:25;4.57;;;1.90;;
39016;SDS011;24784;45.582;5.276;2022-08-21T11:25:02;3.85;;;1.35;;
39016;SDS011;24784;45.582;5.276;2022-08-21T11:28:31;2.60;;;1.88;;
39016;SDS011;24784;45.582;5.276;2022-08-21T11:31:22;2.75;;;1.50;;
39016;SDS011;24784;45.582;5.276;2022-08-21T11:36:52;4.43;;;2.03;;
39016;SDS011;24784;45.582;5.276;2022-08-21T11:45:22;3.70;;;1.60;;
39016;SDS011;24784;45.582;5.276;2022-08-21T11:48:07;3.35;;;1.40;;
39016;SDS011;24784;45.582;5.276;2022-08-21T11:50:51;3.03;;;1.30;;
39016;SDS011;24784;45.582;5.276;2022-08-21T11:53:30;2.47;;;1.15;;
39016;SDS011;24784;45.582;5.276;2022-08-21T11:56:26;3.20;;;1.15;;
39016;SDS011;24784;45.582;5.276;2022-08-21T11:58:55;5.05;;;1.13;;
39016;SDS011;24784;45.582;5.276;2022-08-21T12:01:25;1.70;;;1.10;;
39016;SDS011;24784;45.582;5.276;2022-08-21T12:03:58;2.83;;;1.10;;
39016;SDS011;24784;45.582;5.276;2022-08-21T12:06:31;4.25;;;1.23;;
39016;SDS011;24784;45.582;5.276;2022-08-21T12:09:05;3.17;;;1.55;;
39016;SDS011;24784;45.582;5.276;2022-08-21T12:11:43;3.85;;;1.30;;
39016;SDS011;24784;45.582;5.276;2022-08-21T12:14:16;4.88;;;1.20;;
39016;SDS011;24784;45.582;5.276;2022-08-21T12:16:47;3.70;;;1.20;;
39016;SDS011;24784;45.582;5.276;2022-08-21T12:21:50;4.05;;;1.38;;
39016;SDS011;24784;45.582;5.276;2022-08-21T12:24:33;5.68;;;1.27;;
39016;SDS011;24784;45.582;5.276;2022-08-21T12:27:12;1.63;;;1.15;;
39016;SDS011;24784;45.582;5.276;2022-08-21T12:29:45;2.25;;;1.13;;
39016;SDS011;24784;45.582;5.276;2022-08-21T12:34:46;4.15;;;1.50;;
39016;SDS011;24784;45.582;5.276;2022-08-21T12:40:13;3.10;;;1.30;;
39016;SDS011;24784;45.582;5.276;2022-08-21T12:42:44;3.05;;;1.10;;
39016;SDS011;24784;45.582;5.276;2022-08-21T12:45:59;2.75;;;1.33;;
39016;SDS011;24784;45.582;5.276;2022-08-21T12:50:58;3.95;;;1.13;;
39016;SDS011;24784;45.582;5.276;2022-08-21T12:53:55;5.38;;;0.98;;
39016;SDS011;24784;45.582;5.276;2022-08-21T12:56:25;3.50;;;0.98;;
39016;SDS011;24784;45.582;5.276;2022-08-21T12:58:57;2.92;;;1.10;;
39016;SDS011;24784;45.582;5.276;2022-08-21T13:01:33;5.45;;;1.08;;
39016;SDS011;24784;45.582;5.276;2022-08-21T13:04:17;3.67;;;1.00;;
39016;SDS011;24784;45.582;5.276;2022-08-21T13:06:47;2.20;;;0.90;;
39016;SDS011;24784;45.582;5.276;2022-08-21T13:09:19;4.45;;;1.15;;
39016;SDS011;24784;45.582;5.276;2022-08-21T13:11:49;2.33;;;1.17;;
39016;SDS011;24784;45.582;5.276;2022-08-21T13:14:28;3.13;;;0.95;;
39016;SDS011;24784;45.582;5.276;2022-08-21T13:16:59;2.45;;;1.13;;
39016;SDS011;24784;45.582;5.276;2022-08-21T13:19:29;3.03;;;1.40;;
39016;SDS011;24784;45.582;5.276;2022-08-21T13:21:55;6.85;;;1.13;;
39016;SDS011;24784;45.582;5.276;2022-08-21T13:24:23;3.08;;;0.95;;
39016;SDS011;24784;45.582;5.276;2022-08-21T13:26:51;4.30;;;1.20;;
39016;SDS011;24784;45.582;5.276;2022-08-21T13:29:21;2.53;;;1.45;;
39016;SDS011;24784;45.582;5.276;2022-08-21T13:31:53;4.68;;;1.15;;
39016;SDS011;24784;45.582;5.276;2022-08-21T13:34:22;4.00;;;1.52;;
39016;SDS011;24784;45.582;5.276;2022-08-21T13:36:54;3.08;;;0.90;;
39016;SDS011;24784;45.582;5.276;2022-08-21T13:39:23;2.57;;;1.10;;
39016;SDS011;24784;45.582;5.276;2022-08-21T13:41:50;2.83;;;1.00;;
39016;SDS011;24784;45.582;5.276;2022-08-21T13:44:21;4.53;;;1.52;;
39016;SDS011;24784;45.582;5.276;2022-08-21T13:46:57;2.63;;;1.20;;
39016;SDS011;24784;45.582;5.276;2022-08-21T13:49:29;2.67;;;1.48;;
39016;SDS011;24784;45.582;5.276;2022-08-21T13:51:57;6.00;;;1.40;;
39016;SDS011;24784;45.582;5.276;2022-08-21T13:54:24;7.32;;;1.58;;
39016;SDS011;24784;45.582;5.276;2022-08-21T13:56:51;4.47;;;1.65;;
39016;SDS011;24784;45.582;5.276;2022-08-21T13:59:25;5.07;;;1.42;;
39016;SDS011;24784;45.582;5.276;2022-08-21T14:01:54;3.58;;;1.65;;
39016;SDS011;24784;45.582;5.276;2022-08-21T14:04:39;3.90;;;1.27;;
39016;SDS011;24784;45.582;5.276;2022-08-21T14:07:33;3.95;;;1.40;;
39016;SDS011;24784;45.582;5.276;2022-08-21T14:10:11;2.50;;;1.60;;
39016;SDS011;24784;45.582;5.276;2022-08-21T14:12:42;3.28;;;1.30;;
39016;SDS011;24784;45.582;5.276;2022-08-21T14:15:13;2.60;;;1.13;;
39016;SDS011;24784;45.582;5.276;2022-08-21T14:17:41;3.53;;;1.00;;
39016;SDS011;24784;45.582;5.276;2022-08-21T14:20:11;3.10;;;1.20;;
39016;SDS011;24784;45.582;5.276;2022-08-21T14:22:49;4.03;;;1.13;;
39016;SDS011;24784;45.582;5.276;2022-08-21T14:27:48;3.33;;;1.27;;
39016;SDS011;24784;45.582;5.276;2022-08-21T14:30:28;2.42;;;1.17;;
39016;SDS011;24784;45.582;5.276;2022-08-21T14:33:02;2.95;;;1.02;;
39016;SDS011;24784;45.582;5.276;2022-08-21T14:35:29;7.80;;;1.20;;
39016;SDS011;24784;45.582;5.276;2022-08-21T14:37:56;2.65;;;1.00;;
39016;SDS011;24784;45.582;5.276;2022-08-21T14:40:22;3.10;;;1.50;;
39016;SDS011;24784;45.582;5.276;2022-08-21T14:42:49;3.67;;;1.55;;
39016;SDS011;24784;45.582;5.276;2022-08-21T14:45:26;4.45;;;1.60;;
39016;SDS011;24784;45.582;5.276;2022-08-21T14:48:08;2.35;;;0.95;;
39016;SDS011;24784;45.582;5.276;2022-08-21T14:50:49;3.75;;;1.40;;
39016;SDS011;24784;45.582;5.276;2022-08-21T14:53:18;3.33;;;1.30;;
39016;SDS011;24784;45.582;5.276;2022-08-21T14:55:43;3.53;;;1.30;;
39016;SDS011;24784;45.582;5.276;2022-08-21T14:58:29;4.82;;;1.38;;
39016;SDS011;24784;45.582;5.276;2022-08-21T15:00:56;4.90;;;1.95;;
39016;SDS011;24784;45.582;5.276;2022-08-21T15:03:23;2.63;;;1.25;;
39016;SDS011;24784;45.582;5.276;2022-08-21T15:05:50;5.32;;;1.52;;
39016;SDS011;24784;45.582;5.276;2022-08-21T15:08:16;2.05;;;1.30;;
39016;SDS011;24784;45.582;5.276;2022-08-21T15:10:43;5.60;;;1.48;;
39016;SDS011;24784;45.582;5.276;2022-08-21T15:13:09;3.83;;;1.50;;
39016;SDS011;24784;45.582;5.276;2022-08-21T15:15:39;3.17;;;1.75;;
39016;SDS011;24784;45.582;5.276;2022-08-21T15:18:07;4.65;;;1.52;;
39016;SDS011;24784;45.582;5.276;2022-08-21T15:20:34;4.50;;;2.13;;
39016;SDS011;24784;45.582;5.276;2022-08-21T15:23:00;4.57;;;1.85;;
39016;SDS011;24784;45.582;5.276;2022-08-21T15:25:27;6.47;;;2.10;;
39016;SDS011;24784;45.582;5.276;2022-08-21T15:27:53;4.50;;;1.80;;
39016;SDS011;24784;45.582;5.276;2022-08-21T15:30:19;5.00;;;2.45;;
39016;SDS011;24784;45.582;5.276;2022-08-21T15:32:44;4.15;;;2.33;;
39016;SDS011;24784;45.582;5.276;2022-08-21T15:35:10;5.03;;;1.95;;
39016;SDS011;24784;45.582;5.276;2022-08-21T15:37:36;8.98;;;2.45;;
39016;SDS011;24784;45.582;5.276;2022-08-21T15:40:02;5.97;;;2.10;;
39016;SDS011;24784;45.582;5.276;2022-08-21T15:42:31;5.78;;;2.40;;
39016;SDS011;24784;45.582;5.276;2022-08-21T15:44:58;4.82;;;2.60;;
39016;SDS011;24784;45.582;5.276;2022-08-21T15:47:34;3.88;;;2.00;;
39016;SDS011;24784;45.582;5.276;2022-08-21T15:50:02;4.07;;;2.00;;
39016;SDS011;24784;45.582;5.276;2022-08-21T15:52:30;8.07;;;2.53;;
39016;SDS011;24784;45.582;5.276;2022-08-21T15:54:56;7.50;;;2.38;;
39016;SDS011;24784;45.582;5.276;2022-08-21T15:57:22;6.07;;;2.58;;
39016;SDS011;24784;45.582;5.276;2022-08-21T15:59:51;4.28;;;2.50;;
39016;SDS011;24784;45.582;5.276;2022-08-21T16:02:23;4.43;;;2.00;;
39016;SDS011;24784;45.582;5.276;2022-08-21T16:04:52;5.60;;;2.50;;
39016;SDS011;24784;45.582;5.276;2022-08-21T16:07:18;5.82;;;3.00;;
39016;SDS011;24784;45.582;5.276;2022-08-21T16:09:44;4.90;;;2.90;;
39016;SDS011;24784;45.582;5.276;2022-08-21T16:12:11;3.28;;;2.78;;
39016;SDS011;24784;45.582;5.276;2022-08-21T16:15:00;8.00;;;2.80;;
39016;SDS011;24784;45.582;5.276;2022-08-21T16:17:30;4.15;;;2.85;;
39016;SDS011;24784;45.582;5.276;2022-08-21T16:19:58;9.95;;;2.88;;
39016;SDS011;24784;45.582;5.276;2022-08-21T16:22:28;5.47;;;2.88;;
39016;SDS011;24784;45.582;5.276;2022-08-21T16:24:53;5.28;;;2.95;;